createdAt,value
2022-07-25T00:01:47.513Z,101121.22
2022-07-25T00:04:14.860Z,101127.84
2022-07-25T00:06:42.775Z,101123.19
2022-07-25T00:09:09.929Z,101123.47
2022-07-25T00:11:37.064Z,101121.84
2022-07-25T00:14:05.648Z,101121.84
2022-07-25T00:16:33.053Z,101112.19
2022-07-25T00:18:59.944Z,101112.50
2022-07-25T00:21:26.876Z,101109.47
2022-07-25T00:23:53.770Z,101104.75
2022-07-25T00:26:20.591Z,101100.91
2022-07-25T00:28:47.333Z,101096.19
2022-07-25T00:31:14.229Z,101098.41
2022-07-25T00:33:41.319Z,101091.53
2022-07-25T00:36:09.243Z,101093.19
2022-07-25T00:38:36.362Z,101084.91
2022-07-25T00:41:04.859Z,101093.72
2022-07-25T00:43:32.474Z,101084.66
2022-07-25T00:45:59.783Z,101081.06
2022-07-25T00:48:29.041Z,101076.66
2022-07-25T00:50:56.717Z,101077.22
2022-07-25T00:53:24.168Z,101088.81
2022-07-25T00:55:51.842Z,101077.22
2022-07-25T00:58:19.061Z,101075.03
2022-07-25T01:00:46.566Z,101083.03
2022-07-25T01:03:13.615Z,101084.97
2022-07-25T01:05:40.559Z,101081.66
2022-07-25T01:08:07.947Z,101068.94
2022-07-25T01:10:35.221Z,101076.13
2022-07-25T01:13:02.679Z,101073.94
2022-07-25T01:15:29.751Z,101072.00
2022-07-25T01:17:56.674Z,101067.84
2022-07-25T01:20:25.514Z,101070.03
2022-07-25T01:22:53.602Z,101067.84
2022-07-25T01:25:21.143Z,101058.22
2022-07-25T01:27:52.920Z,101062.34
2022-07-25T01:30:23.431Z,101050.22
2022-07-25T01:32:50.472Z,101054.63
2022-07-25T01:35:17.353Z,101054.88
2022-07-25T01:37:45.756Z,101049.66
2022-07-25T01:40:14.029Z,101053.50
2022-07-25T01:42:41.580Z,101042.47
2022-07-25T01:45:09.011Z,101044.72
2022-07-25T01:47:35.911Z,101027.59
2022-07-25T01:50:02.773Z,101026.22
2022-07-25T01:52:29.622Z,101028.19
2022-07-25T01:54:56.676Z,101017.44
2022-07-25T01:57:26.622Z,101024.56
2022-07-25T01:59:58.502Z,101009.69
2022-07-25T02:02:25.508Z,101012.47
2022-07-25T02:04:52.324Z,101004.19
2022-07-25T02:07:19.174Z,101003.38
2022-07-25T02:09:46.037Z,100998.97
2022-07-25T02:12:13.020Z,101001.44
2022-07-25T02:14:39.962Z,100996.22
2022-07-25T02:17:06.892Z,100990.13
2022-07-25T02:19:34.400Z,100990.97
2022-07-25T02:22:01.358Z,100987.38
2022-07-25T02:24:28.270Z,100994.00
2022-07-25T02:26:55.105Z,100977.19
2022-07-25T02:29:22.258Z,100978.28
2022-07-25T02:31:49.203Z,100976.34
2022-07-25T02:34:15.998Z,100966.44
2022-07-25T02:36:43.050Z,100962.03
2022-07-25T02:39:10.053Z,100956.53
2022-07-25T02:41:37.024Z,100952.38
2022-07-25T02:44:04.962Z,100950.44
2022-07-25T02:46:32.190Z,100947.69
2022-07-25T02:48:59.313Z,100944.66
2022-07-25T02:51:26.456Z,100944.94
2022-07-25T02:53:58.265Z,100938.31
2022-07-25T02:56:26.923Z,100930.88
2022-07-25T02:58:57.474Z,100933.38
2022-07-25T03:01:24.378Z,100935.56
2022-07-25T03:03:51.219Z,100936.66
2022-07-25T03:06:18.346Z,100928.09
2022-07-25T03:08:45.100Z,100928.38
2022-07-25T03:11:12.805Z,100920.41
2022-07-25T03:13:39.542Z,100916.50
2022-07-25T03:16:06.980Z,100921.72
2022-07-25T03:18:33.753Z,100924.78
2022-07-25T03:21:00.674Z,100916.19
2022-07-25T03:23:28.506Z,100906.53
2022-07-25T03:25:56.178Z,100904.06
2022-07-25T03:28:24.823Z,100914.25
2022-07-25T03:30:52.698Z,100899.09
2022-07-25T03:33:20.638Z,100899.63
2022-07-25T03:35:47.491Z,100896.59
2022-07-25T03:38:14.519Z,100902.59
2022-07-25T03:40:41.477Z,100892.94
2022-07-25T03:43:08.293Z,100890.06
2022-07-25T03:45:35.349Z,100885.97
2022-07-25T03:48:02.498Z,100891.69
2022-07-25T03:50:29.392Z,100880.66
2022-07-25T03:52:56.470Z,100879.97
2022-07-25T03:55:23.253Z,100888.13
2022-07-25T03:57:50.705Z,100879.25
2022-07-25T04:00:18.183Z,100868.75
2022-07-25T04:02:45.076Z,100860.44
2022-07-25T04:05:12.045Z,100863.91
2022-07-25T04:07:39.083Z,100864.34
2022-07-25T04:10:07.560Z,100856.25
2022-07-25T04:12:34.682Z,100855.56
2022-07-25T04:15:01.574Z,100855.84
2022-07-25T04:17:28.505Z,100849.28
2022-07-25T04:19:55.657Z,100845.22
2022-07-25T04:22:23.514Z,100840.88
2022-07-25T04:24:50.383Z,100833.63
2022-07-25T04:27:17.073Z,100835.41
2022-07-25T04:29:43.830Z,100826.03
2022-07-25T04:32:10.639Z,100820.75
2022-07-25T04:34:37.419Z,100821.97
2022-07-25T04:37:04.140Z,100823.69
2022-07-25T04:39:30.803Z,100818.16
2022-07-25T04:41:57.595Z,100815.00
2022-07-25T04:44:24.544Z,100814.44
2022-07-25T04:46:51.407Z,100804.97
2022-07-25T04:49:18.247Z,100804.31
2022-07-25T04:51:47.849Z,100798.41
2022-07-25T04:54:14.615Z,100787.63
2022-07-25T04:56:41.487Z,100781.53
2022-07-25T04:59:08.292Z,100788.91
2022-07-25T05:01:35.503Z,100783.09
2022-07-25T05:04:02.498Z,100773.22
2022-07-25T05:06:29.278Z,100776.78
2022-07-25T05:08:56.134Z,100770.53
2022-07-25T05:11:22.972Z,100778.75
2022-07-25T05:13:49.997Z,100772.44
2022-07-25T05:16:16.945Z,100768.75
2022-07-25T05:18:44.013Z,100767.31
2022-07-25T05:21:12.579Z,100769.56
2022-07-25T05:23:39.707Z,100771.19
2022-07-25T05:26:06.497Z,100758.44
2022-07-25T05:28:33.329Z,100767.75
2022-07-25T05:31:00.075Z,100757.88
2022-07-25T05:33:26.890Z,100754.63
2022-07-25T05:35:54.189Z,100756.72
2022-07-25T05:38:21.025Z,100755.31
2022-07-25T05:40:48.260Z,100754.88
2022-07-25T05:43:14.994Z,100756.59
2022-07-25T05:45:41.738Z,100748.13
2022-07-25T05:48:08.603Z,100746.16
2022-07-25T05:50:37.366Z,100747.88
2022-07-25T05:53:04.111Z,100736.13
2022-07-25T05:55:30.965Z,100729.66
2022-07-25T05:57:57.961Z,100732.78
2022-07-25T06:00:25.164Z,100738.34
2022-07-25T06:02:52.378Z,100736.38
2022-07-25T06:05:19.079Z,100727.94
2022-07-25T06:07:45.705Z,100718.47
2022-07-25T06:10:12.390Z,100729.97
2022-07-25T06:12:39.032Z,100720.47
2022-07-25T06:15:07.921Z,100718.03
2022-07-25T06:17:39.269Z,100719.38
2022-07-25T06:20:06.477Z,100711.16
2022-07-25T06:22:33.264Z,100713.25
2022-07-25T06:25:02.963Z,100709.84
2022-07-25T06:27:29.686Z,100728.28
2022-07-25T06:29:56.661Z,100722.50
2022-07-25T06:32:24.921Z,100722.03
2022-07-25T06:34:51.848Z,100722.97
2022-07-25T06:37:18.529Z,100729.38
2022-07-25T06:39:46.073Z,100721.19
2022-07-25T06:42:13.475Z,100716.63
2022-07-25T06:44:40.285Z,100730.88
2022-07-25T06:47:12.801Z,100723.38
2022-07-25T06:49:40.612Z,100719.53
2022-07-25T06:52:07.827Z,100713.47
2022-07-25T06:54:35.173Z,100717.44
2022-07-25T06:57:01.854Z,100717.72
2022-07-25T06:59:28.719Z,100706.41
2022-07-25T07:01:55.612Z,100704.06
2022-07-25T07:04:22.303Z,100697.97
2022-07-25T07:06:48.882Z,100704.34
2022-07-25T07:09:15.649Z,100706.66
2022-07-25T07:11:42.304Z,100702.56
2022-07-25T07:14:09.630Z,100703.19
2022-07-25T07:16:36.837Z,100696.25
2022-07-25T07:19:04.477Z,100689.56
2022-07-25T07:21:32.702Z,100698.00
2022-07-25T07:23:59.413Z,100689.19
2022-07-25T07:26:26.039Z,100685.22
2022-07-25T07:28:54.798Z,100689.19
2022-07-25T07:31:21.647Z,100673.50
2022-07-25T07:33:48.419Z,100663.41
2022-07-25T07:36:15.130Z,100675.59
2022-07-25T07:38:42.074Z,100669.25
2022-07-25T07:41:08.678Z,100668.31
2022-07-25T07:43:35.997Z,100651.31
2022-07-25T07:46:03.075Z,100656.22
2022-07-25T07:48:31.058Z,100652.47
2022-07-25T07:50:58.890Z,100655.97
2022-07-25T07:53:44.576Z,100655.06
2022-07-25T07:56:12.265Z,100658.91
2022-07-25T07:58:39.226Z,100648.50
2022-07-25T08:01:08.439Z,100648.69
2022-07-25T08:03:36.546Z,100637.19
2022-07-25T08:06:04.513Z,100633.88
2022-07-25T08:08:31.897Z,100628.38
2022-07-25T08:10:59.565Z,100629.66
2022-07-25T08:13:30.287Z,100621.19
2022-07-25T08:15:59.538Z,100624.91
2022-07-25T08:18:27.596Z,100620.63
2022-07-25T08:20:54.785Z,100621.78
2022-07-25T08:23:22.423Z,100621.13
2022-07-25T08:25:49.663Z,100618.91
2022-07-25T08:28:16.407Z,100611.97
2022-07-25T08:30:43.696Z,100613.81
2022-07-25T08:33:13.693Z,100609.09
2022-07-25T08:35:42.059Z,100615.13
2022-07-25T08:38:11.792Z,100612.00
2022-07-25T08:40:38.761Z,100612.72
2022-07-25T08:43:06.117Z,100613.16
2022-07-25T08:45:33.402Z,100615.19
2022-07-25T08:48:00.158Z,100606.84
2022-07-25T08:50:29.590Z,100617.88
2022-07-25T08:53:29.907Z,100610.94
2022-07-25T08:55:45.886Z,100596.03
2022-07-25T08:58:16.389Z,100600.34
2022-07-25T09:00:43.626Z,100601.28
2022-07-25T09:03:10.935Z,100601.91
2022-07-25T09:05:44.871Z,100591.88
2022-07-25T09:08:14.236Z,100596.75
2022-07-25T09:10:47.604Z,100587.75
2022-07-25T09:13:18.877Z,100586.28
2022-07-25T09:15:47.636Z,100583.31
2022-07-25T09:18:19.628Z,100580.41
2022-07-25T09:20:49.177Z,100587.09
2022-07-25T09:23:34.934Z,100572.91
2022-07-25T09:26:13.120Z,100576.97
2022-07-25T09:28:48.489Z,100577.56
2022-07-25T09:31:17.035Z,100580.03
2022-07-25T09:33:56.539Z,100574.38
2022-07-25T09:36:24.300Z,100573.75
2022-07-25T09:39:01.343Z,100574.72
2022-07-25T09:41:39.483Z,100569.63
2022-07-25T09:44:20.253Z,100562.50
2022-07-25T09:46:47.754Z,100560.53
2022-07-25T09:49:14.929Z,100554.78
2022-07-25T09:51:42.945Z,100554.06
2022-07-25T09:54:10.351Z,100564.66
2022-07-25T09:56:37.296Z,100553.84
2022-07-25T09:59:04.650Z,100558.34
2022-07-25T10:01:51.318Z,100559.84
2022-07-25T10:04:24.439Z,100556.88
2022-07-25T10:06:56.512Z,100561.28
2022-07-25T10:09:23.492Z,100568.22
2022-07-25T10:12:07.720Z,100559.41
2022-07-25T10:14:35.989Z,100565.53
2022-07-25T10:17:02.958Z,100560.75
2022-07-25T10:22:57.786Z,100551.69
2022-07-25T10:25:25.346Z,100549.97
2022-07-25T10:28:04.113Z,100545.59
2022-07-25T10:30:39.598Z,100544.00
2022-07-25T10:33:18.422Z,100541.75
2022-07-25T10:35:45.766Z,100537.75
2022-07-25T10:38:12.700Z,100545.16
2022-07-25T10:40:43.572Z,100545.41
2022-07-25T10:43:22.356Z,100542.41
2022-07-25T10:45:52.142Z,100541.22
2022-07-25T10:48:32.990Z,100526.34
2022-07-25T10:51:06.049Z,100536.38
2022-07-25T10:53:39.264Z,100524.81
2022-07-25T10:56:08.818Z,100540.91
2022-07-25T10:58:50.942Z,100529.25
2022-07-25T11:01:26.773Z,100533.59
2022-07-25T11:03:56.557Z,100532.91
2022-07-25T11:06:38.959Z,100522.72
2022-07-25T11:09:24.953Z,100530.38
2022-07-25T11:11:58.443Z,100530.94
2022-07-25T11:14:33.514Z,100525.47
2022-07-25T11:17:15.895Z,100527.81
2022-07-25T11:19:44.516Z,100519.31
2022-07-25T11:22:11.564Z,100511.19
2022-07-25T11:24:44.139Z,100519.44
2022-07-25T11:27:22.747Z,100512.13
2022-07-25T11:29:49.786Z,100501.63
2022-07-25T11:32:16.584Z,100520.75
2022-07-25T11:34:54.216Z,100516.44
2022-07-25T11:37:21.612Z,100501.03
2022-07-25T11:39:48.910Z,100498.22
2022-07-25T11:42:18.565Z,100494.28
2022-07-25T11:44:49.230Z,100490.47
2022-07-25T11:47:31.026Z,100498.84
2022-07-25T11:50:03.798Z,100481.84
2022-07-25T11:52:32.963Z,100478.28
2022-07-25T11:55:05.815Z,100472.69
2022-07-25T11:57:38.572Z,100472.34
2022-07-25T12:00:11.737Z,100475.56
2022-07-25T12:02:38.934Z,100466.28
2022-07-25T12:05:07.553Z,100468.31
2022-07-25T12:07:47.330Z,100469.09
2022-07-25T12:10:22.463Z,100459.84
2022-07-25T12:12:55.822Z,100456.13
2022-07-25T12:15:29.081Z,100467.41
2022-07-25T12:17:57.815Z,100462.53
2022-07-25T12:20:27.277Z,100479.56
2022-07-25T12:22:56.499Z,100476.47
2022-07-25T12:25:28.909Z,100474.88
2022-07-25T12:27:59.022Z,100471.66
2022-07-25T12:30:27.816Z,100475.22
2022-07-25T12:32:55.012Z,100467.44
2022-07-25T12:35:22.000Z,100463.28
2022-07-25T12:37:48.959Z,100472.00
2022-07-25T12:40:17.195Z,100468.50
2022-07-25T12:42:44.942Z,100469.44
2022-07-25T12:45:12.761Z,100473.75
2022-07-25T12:47:39.959Z,100480.31
2022-07-25T12:50:07.152Z,100481.88
2022-07-25T12:52:34.266Z,100469.09
2022-07-25T12:55:01.001Z,100491.06
2022-07-25T12:57:27.942Z,100483.59
2022-07-25T12:59:54.670Z,100489.16
2022-07-25T13:02:21.462Z,100480.13
2022-07-25T13:04:49.243Z,100479.59
2022-07-25T13:07:16.538Z,100484.63
2022-07-25T13:09:43.570Z,100490.34
2022-07-25T13:12:12.337Z,100487.50
2022-07-25T13:14:43.161Z,100482.75
2022-07-25T13:17:10.990Z,100471.72
2022-07-25T13:19:37.845Z,100487.56
2022-07-25T13:22:04.573Z,100483.66
2022-07-25T13:24:31.532Z,100473.19
2022-07-25T13:26:58.306Z,100482.41
2022-07-25T13:29:25.078Z,100481.59
2022-07-25T13:31:52.275Z,100480.47
2022-07-25T13:34:18.958Z,100486.72
2022-07-25T13:36:46.513Z,100497.59
2022-07-25T13:39:13.169Z,100512.38
2022-07-25T13:41:39.933Z,100520.97
2022-07-25T13:44:06.676Z,100525.28
2022-07-25T13:46:34.210Z,100534.97
2022-07-25T13:49:01.140Z,100526.59
2022-07-25T13:51:27.910Z,100532.03
2022-07-25T13:53:54.663Z,100530.38
2022-07-25T13:56:21.384Z,100528.69
2022-07-25T13:58:48.435Z,100522.00
2022-07-25T14:01:15.664Z,100535.03
2022-07-25T14:03:45.981Z,100541.81
2022-07-25T14:06:12.782Z,100553.34
2022-07-25T14:08:40.583Z,100561.38
2022-07-25T14:11:08.561Z,100566.16
2022-07-25T14:13:36.510Z,100567.16
2022-07-25T14:16:03.654Z,100568.38
2022-07-25T14:18:32.142Z,100561.50
2022-07-25T14:20:59.741Z,100564.13
2022-07-25T14:23:29.878Z,100566.06
2022-07-25T14:25:58.662Z,100564.81
2022-07-25T14:28:25.754Z,100579.63
2022-07-25T14:30:52.649Z,100587.72
2022-07-25T14:33:19.662Z,100608.63
2022-07-25T14:35:46.366Z,100609.91
2022-07-25T14:38:13.102Z,100606.47
2022-07-25T14:40:42.151Z,100606.66
2022-07-25T14:43:08.787Z,100607.47
2022-07-25T14:45:37.194Z,100613.72
2022-07-25T14:48:07.036Z,100618.00
2022-07-25T14:50:33.769Z,100603.75
2022-07-25T14:53:00.559Z,100606.56
2022-07-25T14:55:27.494Z,100617.47
2022-07-25T14:57:54.244Z,100619.72
2022-07-25T15:00:24.891Z,100621.38
2022-07-25T15:02:54.554Z,100628.00
2022-07-25T15:05:21.786Z,100634.16
2022-07-25T15:07:48.754Z,100625.06
2022-07-25T15:10:15.553Z,100635.03
2022-07-25T15:12:42.185Z,100628.56
2022-07-25T15:15:09.283Z,100611.16
2022-07-25T15:17:36.113Z,100612.09
2022-07-25T15:20:03.535Z,100610.22
2022-07-25T15:22:30.599Z,100608.94
2022-07-25T15:25:28.636Z,100604.56
2022-07-25T15:27:44.510Z,100605.88
2022-07-25T15:30:11.848Z,100627.09
2022-07-25T15:32:40.242Z,100590.50
2022-07-25T15:35:07.789Z,100586.69
2022-07-25T15:37:34.505Z,100596.66
2022-07-25T15:40:01.447Z,100604.50
2022-07-25T15:42:29.549Z,100613.53
2022-07-25T15:45:29.803Z,100614.22
2022-07-25T15:47:47.517Z,100629.78
2022-07-25T15:50:18.327Z,100647.81
2022-07-25T15:52:44.907Z,100637.41
2022-07-25T15:55:11.610Z,100631.16
2022-07-25T15:57:38.355Z,100630.78
2022-07-25T16:00:08.221Z,100636.31
2022-07-25T16:02:35.594Z,100639.13
2022-07-25T16:05:03.771Z,100653.22
2022-07-25T16:07:30.422Z,100662.34
2022-07-25T16:09:57.292Z,100661.81
2022-07-25T16:12:28.369Z,100665.03
2022-07-25T16:14:55.769Z,100670.53
2022-07-25T16:17:22.704Z,100676.94
2022-07-25T16:19:49.542Z,100689.88
2022-07-25T16:22:16.235Z,100683.41
2022-07-25T16:24:43.008Z,100679.59
2022-07-25T16:27:10.080Z,100684.72
2022-07-25T16:29:37.296Z,100688.84
2022-07-25T16:32:04.677Z,100680.22
2022-07-25T16:34:32.072Z,100676.09
2022-07-25T16:36:59.111Z,100671.88
2022-07-25T16:39:25.865Z,100676.56
2022-07-25T16:41:52.560Z,100671.63
2022-07-25T16:44:19.188Z,100676.44
2022-07-25T16:49:15.444Z,100681.00
2022-07-25T16:51:43.823Z,100676.91
2022-07-25T16:54:11.006Z,100679.03
2022-07-25T16:59:06.740Z,100678.22
2022-07-25T17:01:35.137Z,100680.03
2022-07-25T17:04:01.828Z,100674.25
2022-07-25T17:06:28.633Z,100687.59
2022-07-25T17:08:55.281Z,100683.91
2022-07-25T17:11:22.664Z,100689.47
2022-07-25T17:13:49.393Z,100681.34
2022-07-25T17:16:16.359Z,100686.56
2022-07-25T17:18:43.140Z,100698.31
2022-07-25T17:21:10.674Z,100690.50
2022-07-25T17:23:37.536Z,100688.25
2022-07-25T17:26:05.538Z,100691.75
2022-07-25T17:28:32.832Z,100694.50
2022-07-25T17:30:59.787Z,100696.44
2022-07-25T17:33:26.925Z,100687.22
2022-07-25T17:35:54.156Z,100687.84
2022-07-25T17:38:26.269Z,100691.03
2022-07-25T17:40:53.889Z,100685.00
2022-07-25T17:43:20.762Z,100695.66
2022-07-25T17:45:48.068Z,100700.09
2022-07-25T17:48:15.841Z,100698.84
2022-07-25T17:50:42.706Z,100693.00
2022-07-25T17:53:09.519Z,100691.34
2022-07-25T17:55:39.019Z,100695.25
2022-07-25T17:58:06.385Z,100693.53
2022-07-25T18:00:33.465Z,100693.09
2022-07-25T18:03:00.665Z,100700.97
2022-07-25T18:05:27.923Z,100696.91
2022-07-25T18:07:54.669Z,100689.81
2022-07-25T18:10:22.214Z,100688.88
2022-07-25T18:12:50.230Z,100695.44
2022-07-25T18:15:17.743Z,100697.19
2022-07-25T18:17:46.150Z,100698.28
2022-07-25T18:20:14.735Z,100700.75
2022-07-25T18:22:41.925Z,100700.91
2022-07-25T18:25:11.690Z,100695.16
2022-07-25T18:27:44.553Z,100703.75
2022-07-25T18:30:12.729Z,100701.81
2022-07-25T18:32:40.253Z,100706.16
2022-07-25T18:35:08.136Z,100695.19
2022-07-25T18:37:37.234Z,100695.47
2022-07-25T18:40:08.464Z,100697.41
2022-07-25T18:42:36.452Z,100701.31
2022-07-25T18:45:05.137Z,100703.47
2022-07-25T18:47:35.359Z,100698.72
2022-07-25T18:50:03.601Z,100694.03
2022-07-25T18:52:38.922Z,100697.00
2022-07-25T18:55:08.152Z,100701.28
2022-07-25T18:57:35.919Z,100709.38
2022-07-25T19:00:03.853Z,100695.53
2022-07-25T19:02:31.035Z,100706.25
2022-07-25T19:04:58.312Z,100707.47
2022-07-25T19:07:26.186Z,100703.75
2022-07-25T19:09:53.209Z,100717.84
2022-07-25T19:12:20.383Z,100707.16
2022-07-25T19:14:47.233Z,100718.72
2022-07-25T19:17:14.112Z,100720.97
2022-07-25T19:19:42.018Z,100722.16
2022-07-25T19:22:11.667Z,100724.44
2022-07-25T19:24:38.900Z,100724.47
2022-07-25T19:27:06.133Z,100731.84
2022-07-25T19:29:37.340Z,100734.47
2022-07-25T19:32:04.858Z,100742.50
2022-07-25T19:34:36.503Z,100738.66
2022-07-25T19:37:03.836Z,100744.81
2022-07-25T19:39:31.367Z,100752.25
2022-07-25T19:41:58.615Z,100760.75
2022-07-25T19:44:26.845Z,100765.44
2022-07-25T19:46:57.540Z,100767.03
2022-07-25T19:49:24.705Z,100776.16
2022-07-25T19:51:51.678Z,100775.81
2022-07-25T19:54:21.293Z,100769.94
2022-07-25T19:56:48.208Z,100780.50
2022-07-25T19:59:15.752Z,100778.72
2022-07-25T20:01:43.436Z,100780.00
2022-07-25T20:04:16.651Z,100778.03
2022-07-25T20:06:44.451Z,100777.72
2022-07-25T20:09:11.720Z,100778.19
2022-07-25T20:11:38.939Z,100779.88
2022-07-25T20:14:07.761Z,100779.16
2022-07-25T20:16:37.571Z,100778.25
2022-07-25T20:19:12.396Z,100785.72
2022-07-25T20:21:40.518Z,100789.66
2022-07-25T20:24:08.277Z,100792.97
2022-07-25T20:26:36.080Z,100793.25
2022-07-25T20:29:03.185Z,100790.78
2022-07-25T20:31:30.328Z,100788.25
2022-07-25T20:33:57.817Z,100793.03
2022-07-25T20:36:24.882Z,100797.78
2022-07-25T20:38:54.821Z,100802.78
2022-07-25T20:41:24.070Z,100795.34
2022-07-25T20:43:52.453Z,100802.25
2022-07-25T20:46:19.588Z,100800.09
2022-07-25T20:48:57.074Z,100799.53
2022-07-25T20:51:28.688Z,100805.69
2022-07-25T20:53:56.529Z,100799.13
2022-07-25T20:56:26.950Z,100801.94
2022-07-25T20:59:06.504Z,100803.06
2022-07-25T21:01:34.245Z,100808.22
2022-07-25T21:04:09.977Z,100813.78
2022-07-25T21:06:39.824Z,100812.50
2022-07-25T21:09:08.926Z,100811.41
2022-07-25T21:11:36.957Z,100810.59
2022-07-25T21:14:05.628Z,100804.47
2022-07-25T21:16:36.649Z,100808.63
2022-07-25T21:19:03.784Z,100808.66
2022-07-25T21:21:31.772Z,100810.63
2022-07-25T21:23:59.069Z,100815.34
2022-07-25T21:26:26.096Z,100809.06
2022-07-25T21:28:53.707Z,100819.47
2022-07-25T21:31:21.034Z,100814.56
2022-07-25T21:33:48.815Z,100816.50
2022-07-25T21:36:16.062Z,100811.00
2022-07-25T21:38:43.227Z,100817.88
2022-07-25T21:41:10.404Z,100823.13
2022-07-25T21:43:37.464Z,100826.97
2022-07-25T21:46:04.441Z,100834.34
2022-07-25T21:48:49.899Z,100839.22
2022-07-25T21:51:19.158Z,100838.94
2022-07-25T21:53:53.541Z,100834.50
2022-07-25T21:56:20.985Z,100836.38
2022-07-25T21:58:47.854Z,100832.19
2022-07-25T22:01:15.094Z,100825.78
2022-07-25T22:03:44.689Z,100833.50
2022-07-25T22:06:11.810Z,100829.88
2022-07-25T22:08:39.682Z,100823.31
2022-07-25T22:11:16.036Z,100821.13
2022-07-25T22:13:53.367Z,100818.94
2022-07-25T22:16:21.685Z,100822.22
2022-07-25T22:18:48.813Z,100813.09
2022-07-25T22:21:15.948Z,100818.63
2022-07-25T22:23:46.514Z,100815.56
2022-07-25T22:26:13.586Z,100820.19
2022-07-25T22:28:40.739Z,100824.28
2022-07-25T22:31:08.430Z,100812.75
2022-07-25T22:33:35.592Z,100823.16
2022-07-25T22:36:05.767Z,100825.06
2022-07-25T22:38:32.895Z,100827.56
2022-07-25T22:41:02.965Z,100822.97
2022-07-25T22:43:56.775Z,100821.88
2022-07-25T22:46:17.482Z,100827.28
2022-07-25T22:48:44.437Z,100831.78
2022-07-25T22:51:13.152Z,100832.91
2022-07-25T22:53:40.203Z,100833.41
2022-07-25T22:56:07.126Z,100829.94
2022-07-25T22:58:34.085Z,100831.75
2022-07-25T23:01:01.068Z,100830.69
2022-07-25T23:03:30.782Z,100832.06
2022-07-25T23:06:01.799Z,100831.50
2022-07-25T23:08:29.094Z,100837.63
2022-07-25T23:10:59.003Z,100832.69
2022-07-25T23:13:26.360Z,100831.66
2022-07-25T23:15:53.426Z,100835.53
2022-07-25T23:18:21.478Z,100841.63
2022-07-25T23:20:48.641Z,100825.09
2022-07-25T23:23:15.934Z,100824.59
2022-07-25T23:25:43.036Z,100831.25
2022-07-25T23:28:10.187Z,100824.63
2022-07-25T23:30:40.457Z,100831.28
2022-07-25T23:33:08.284Z,100826.53
2022-07-25T23:35:35.912Z,100827.91
2022-07-25T23:38:04.012Z,100831.75
2022-07-25T23:40:31.063Z,100828.81
2022-07-25T23:42:58.171Z,100829.38
2022-07-25T23:45:27.546Z,100826.38
2022-07-25T23:47:55.440Z,100833.25
2022-07-25T23:50:23.053Z,100823.59
2022-07-25T23:52:50.066Z,100836.84
2022-07-25T23:55:16.986Z,100833.75
2022-07-25T23:57:44.097Z,100827.16
